Time;durP1;ratioP1;P1;durP2;ratioP2;P2;SDS_P1;SDS_P2;PMS_P1;PMS_P2;Temp;Humidity;BMP_temperature;BMP_pressure;BME280_temperature;BME280_humidity;BME280_pressure;Samples;Min_cycle;Max_cycle;Signal;HPM_P1;HPM_P2
2022/10/08 00:02:02;;;;;;;14.05;7.40;;;;;;;10.98;57.81;96211.75;4987142;28;20022;-79
2022/10/08 00:04:28;;;;;;;12.85;7.38;;;;;;;10.96;57.96;96204.88;4988146;28;20053;-81
2022/10/08 00:06:53;;;;;;;18.67;7.50;;;;;;;10.95;58.44;96204.03;4987057;28;20030;-80
2022/10/08 00:09:19;;;;;;;14.02;6.82;;;;;;;10.92;59.50;96209.72;4954684;28;20468;-79
2022/10/08 00:11:44;;;;;;;11.38;7.10;;;;;;;10.86;59.84;96207.69;4953269;28;20057;-79
2022/10/08 00:14:09;;;;;;;14.95;6.80;;;;;;;10.78;59.95;96200.44;4970122;28;20587;-79
2022/10/08 00:16:37;;;;;;;12.93;6.78;;;;;;;10.74;59.72;96199.91;4987575;28;20027;-80
2022/10/08 00:19:07;;;;;;;11.18;6.75;;;;;;;10.78;59.38;96202.25;4953731;28;20030;-80
2022/10/08 00:21:35;;;;;;;13.25;7.30;;;;;;;10.79;59.60;96194.06;4954736;28;20413;-81
2022/10/08 00:24:01;;;;;;;12.23;6.72;;;;;;;10.79;59.54;96198.56;4953418;28;20053;-79
2022/10/08 00:26:27;;;;;;;14.95;7.30;;;;;;;10.75;60.28;96193.53;4954778;28;20519;-79
2022/10/08 00:28:55;;;;;;;11.63;6.68;;;;;;;10.80;59.67;96192.22;4953302;28;20026;-79
2022/10/08 00:31:22;;;;;;;20.65;7.05;;;;;;;10.80;59.48;96190.34;4969168;28;20042;-80
2022/10/08 00:33:49;;;;;;;14.40;7.18;;;;;;;10.75;59.92;96181.97;4987084;28;20034;-79
2022/10/08 00:36:14;;;;;;;11.32;6.78;;;;;;;10.73;60.39;96189.31;4953391;28;20030;-79
2022/10/08 00:38:40;;;;;;;13.75;7.32;;;;;;;10.68;60.54;96183.59;4987314;28;20029;-79
2022/10/08 00:41:06;;;;;;;12.20;8.15;;;;;;;10.68;60.96;96183.59;4968906;28;20463;-79
2022/10/08 00:43:44;;;;;;;16.77;8.02;;;;;;;10.71;60.96;96186.81;4987601;28;20516;-79
2022/10/08 00:46:22;;;;;;;13.55;7.65;;;;;;;10.78;60.60;96178.13;4968153;28;20564;-79
2022/10/08 00:48:49;;;;;;;12.18;7.57;;;;;;;10.76;60.64;96178.28;4969818;28;20043;-78
2022/10/08 00:51:15;;;;;;;13.60;7.88;;;;;;;10.78;60.09;96186.16;4953275;28;20030;-79
2022/10/08 00:53:40;;;;;;;14.43;7.88;;;;;;;10.75;60.07;96180.09;4969400;28;20438;-79
2022/10/08 00:56:05;;;;;;;15.98;7.60;;;;;;;10.76;59.52;96172.91;4987358;28;20022;-78
2022/10/08 00:58:31;;;;;;;18.33;7.10;;;;;;;10.75;58.34;96171.22;4952521;28;20030;-80
2022/10/08 01:00:57;;;;;;;11.27;6.75;;;;;;;10.68;57.54;96168.34;4937379;28;20362;-79
2022/10/08 01:03:22;;;;;;;15.27;7.80;;;;;;;10.64;57.03;96177.69;4952604;28;20138;-79
2022/10/08 01:05:48;;;;;;;13.05;6.90;;;;;;;10.57;57.11;96168.63;4953904;28;20034;-79
2022/10/08 01:08:38;;;;;;;11.52;6.78;;;;;;;10.49;57.45;96172.91;4986116;28;20023;-79
2022/10/08 01:11:23;;;;;;;10.38;6.88;;;;;;;10.41;58.15;96159.44;4986412;28;20046;-79
2022/10/08 01:14:00;;;;;;;12.35;6.78;;;;;;;10.36;58.03;96159.06;4955507;28;20026;-79
2022/10/08 01:16:39;;;;;;;10.23;5.85;;;;;;;10.25;58.11;96147.59;4953188;28;20029;-79
2022/10/08 01:19:35;;;;;;;11.70;6.22;;;;;;;10.18;58.95;96154.59;4937952;28;20105;-79
2022/10/08 01:22:29;;;;;;;9.35;5.90;;;;;;;10.20;59.24;96144.56;4969320;28;20034;-78
2022/10/08 01:27:45;;;;;;;10.55;5.88;;;;;;;10.24;59.58;96131.66;4959170;28;20118;-78
2022/10/08 01:30:15;;;;;;;10.25;5.85;;;;;;;10.22;59.34;96134.50;4952957;28;20041;-79
2022/10/08 01:32:49;;;;;;;11.68;6.57;;;;;;;10.24;60.25;96137.88;4952859;28;20104;-79
2022/10/08 01:35:20;;;;;;;12.35;6.45;;;;;;;10.25;59.86;96125.31;4954613;28;20030;-79
2022/10/08 01:37:46;;;;;;;10.40;6.57;;;;;;;10.26;60.33;96130.53;4953058;28;20080;-79
2022/10/08 01:40:14;;;;;;;11.10;6.00;;;;;;;10.24;60.01;96121.78;4953768;28;20034;-79
2022/10/08 01:42:40;;;;;;;14.23;6.93;;;;;;;10.17;60.03;96122.59;4952503;28;20034;-79
2022/10/08 01:45:09;;;;;;;11.13;6.03;;;;;;;10.15;59.94;96120.06;4953381;28;20034;-79
2022/10/08 01:47:38;;;;;;;8.82;5.57;;;;;;;10.13;59.33;96125.59;4952830;28;20030;-78
2022/10/08 01:50:19;;;;;;;9.60;5.70;;;;;;;10.06;60.43;96119.16;4969229;28;20109;-79
2022/10/08 01:52:47;;;;;;;12.05;6.22;;;;;;;10.02;60.83;96117.78;4938369;28;20033;-79
2022/10/08 01:55:21;;;;;;;12.40;7.28;;;;;;;10.04;60.64;96125.69;4968994;28;20035;-79
2022/10/08 01:57:46;;;;;;;12.38;6.60;;;;;;;10.02;60.17;96124.00;4938456;28;20490;-79
2022/10/08 02:00:12;;;;;;;11.38;6.03;;;;;;;10.02;61.20;96123.16;4972207;28;20038;-80
2022/10/08 02:02:38;;;;;;;14.32;6.35;;;;;;;9.87;61.19;96123.72;4956785;28;20031;-79
2022/10/08 02:05:03;;;;;;;11.98;6.43;;;;;;;9.97;61.21;96126.31;4956746;28;20049;-79
2022/10/08 02:07:30;;;;;;;11.15;5.97;;;;;;;10.01;60.60;96122.31;4989850;28;20068;-79
2022/10/08 02:10:16;;;;;;;11.43;6.15;;;;;;;9.98;60.90;96122.63;4957253;28;20049;-79
2022/10/08 02:12:42;;;;;;;11.80;6.45;;;;;;;10.00;60.93;96126.00;4971845;28;20034;-79
2022/10/08 02:15:10;;;;;;;14.40;6.45;;;;;;;10.04;60.98;96133.72;4990741;28;20023;-79
2022/10/08 02:17:45;;;;;;;10.93;6.65;;;;;;;9.98;60.54;96127.97;4956001;28;20116;-79
2022/10/08 02:20:30;;;;;;;8.73;5.97;;;;;;;10.02;59.90;96132.03;4972935;28;20026;-79
2022/10/08 02:23:00;;;;;;;11.32;5.80;;;;;;;10.00;59.08;96120.63;4957907;28;20096;-79
2022/10/08 02:25:33;;;;;;;8.18;5.55;;;;;;;9.92;59.23;96117.88;4940499;28;20033;-79
2022/10/08 02:28:10;;;;;;;8.48;5.28;;;;;;;9.87;59.74;96120.19;4974053;28;20405;-79
2022/10/08 02:30:39;;;;;;;9.50;5.50;;;;;;;9.85;59.82;96122.19;4956805;28;20026;-79
2022/10/08 02:33:12;;;;;;;13.02;6.50;;;;;;;9.69;60.56;96128.25;4957023;28;20023;-79
2022/10/08 02:35:45;;;;;;;12.05;5.68;;;;;;;9.68;61.71;96129.25;4957043;28;20022;-79
2022/10/08 02:38:16;;;;;;;7.78;5.38;;;;;;;9.73;60.02;96124.28;4956150;28;20409;-79
2022/10/08 02:40:43;;;;;;;10.25;5.80;;;;;;;9.70;59.58;96130.78;4956990;28;20030;-79
2022/10/08 02:43:11;;;;;;;9.68;5.47;;;;;;;9.64;60.35;96124.19;4955697;28;20513;-79
2022/10/08 02:45:41;;;;;;;9.30;5.22;;;;;;;9.64;59.79;96115.34;4956671;28;20292;-79
2022/10/08 02:48:13;;;;;;;7.75;5.63;;;;;;;9.60;60.99;96120.16;4955704;28;20054;-79
2022/10/08 02:50:40;;;;;;;8.95;5.68;;;;;;;9.59;61.19;96123.00;4939829;28;20117;-79
2022/10/08 02:53:05;;;;;;;9.18;5.47;;;;;;;9.62;59.75;96111.97;4940092;28;20391;-79
2022/10/08 02:55:39;;;;;;;13.57;5.50;;;;;;;9.59;60.02;96113.09;4955532;28;20100;-79
2022/10/08 02:58:07;;;;;;;8.80;5.90;;;;;;;9.54;61.04;96115.41;4972222;28;20416;-79
2022/10/08 03:00:36;;;;;;;8.00;5.90;;;;;;;9.55;61.41;96121.59;4971118;28;20026;-79
2022/10/08 03:03:09;;;;;;;8.13;5.25;;;;;;;9.56;61.68;96123.28;4956268;28;20037;-79
2022/10/08 03:05:35;;;;;;;10.65;5.88;;;;;;;9.56;61.56;96117.94;4955432;28;20061;-79
2022/10/08 03:08:03;;;;;;;14.63;5.75;;;;;;;9.58;61.54;96121.28;4955250;28;20026;-80
2022/10/08 03:10:29;;;;;;;15.38;6.40;;;;;;;9.57;61.56;96112.44;4955646;28;20026;-80
2022/10/08 03:13:00;;;;;;;10.80;5.60;;;;;;;9.57;61.46;96114.25;4954862;28;20026;-80
2022/10/08 03:15:25;;;;;;;11.65;5.90;;;;;;;9.54;61.02;96109.22;4940008;28;20066;-80
2022/10/08 03:17:50;;;;;;;8.15;6.00;;;;;;;9.50;61.93;96114.03;4987958;28;20433;-80
2022/10/08 03:20:16;;;;;;;10.88;5.95;;;;;;;9.50;61.74;96116.69;4971785;28;20033;-80
2022/10/08 03:22:41;;;;;;;8.63;5.97;;;;;;;9.49;61.95;96113.19;4971020;28;20029;-79
2022/10/08 03:25:07;;;;;;;13.10;6.32;;;;;;;9.43;61.87;96119.16;4971231;28;20131;-80
2022/10/08 03:27:34;;;;;;;11.13;6.18;;;;;;;9.45;62.42;96122.53;4971568;28;20038;-81
2022/10/08 03:29:59;;;;;;;10.30;6.30;;;;;;;9.43;62.28;96116.47;4970881;28;20026;-80
2022/10/08 03:32:25;;;;;;;12.90;6.97;;;;;;;9.48;61.79;96108.00;4971655;28;20130;-80
2022/10/08 03:34:51;;;;;;;10.07;6.72;;;;;;;9.52;61.63;96112.03;4954693;28;20023;-80
2022/10/08 03:37:16;;;;;;;11.13;6.05;;;;;;;9.54;61.32;96112.75;4971306;28;20023;-80
2022/10/08 03:39:44;;;;;;;15.77;6.53;;;;;;;9.48;61.42;96116.03;4970237;28;20030;-80
2022/10/08 03:42:10;;;;;;;11.02;5.93;;;;;;;9.52;61.25;96117.41;4955489;28;20485;-80
2022/10/08 03:44:35;;;;;;;12.60;6.55;;;;;;;9.55;60.86;96110.88;4970699;28;20022;-81
2022/10/08 03:47:01;;;;;;;12.30;5.95;;;;;;;9.45;61.18;96109.13;4987904;28;20038;-81
2022/10/08 03:49:26;;;;;;;9.02;6.50;;;;;;;9.44;61.74;96110.13;4954953;28;20050;-81
2022/10/08 03:51:51;;;;;;;13.57;6.68;;;;;;;9.34;62.10;96110.22;4970323;28;20069;-80
2022/10/08 03:54:17;;;;;;;12.20;6.63;;;;;;;9.20;62.46;96108.91;4955187;28;20409;-82
2022/10/08 03:56:42;;;;;;;10.98;6.20;;;;;;;9.22;62.35;96109.56;4969976;28;20026;-80
2022/10/08 03:59:08;;;;;;;14.48;6.78;;;;;;;9.22;62.41;96106.06;4970842;28;20030;-80
2022/10/08 04:01:33;;;;;;;11.70;6.80;;;;;;;9.25;62.56;96111.13;4954088;28;20030;-81
2022/10/08 04:03:59;;;;;;;13.35;7.03;;;;;;;9.24;62.81;96114.78;4954614;28;20034;-81
2022/10/08 04:06:24;;;;;;;15.93;7.20;;;;;;;9.22;63.01;96109.56;4988100;28;20088;-79
2022/10/08 04:08:49;;;;;;;12.90;7.28;;;;;;;9.28;61.63;96111.63;4987675;28;20097;-80
2022/10/08 04:11:16;;;;;;;12.75;6.90;;;;;;;9.28;62.14;96108.16;4987906;28;20027;-80
2022/10/08 04:13:41;;;;;;;13.50;7.18;;;;;;;9.25;61.87;96111.94;4954009;28;20030;-81
2022/10/08 04:16:12;;;;;;;13.68;6.40;;;;;;;9.17;62.41;96111.03;4970519;28;20092;-79
2022/10/08 04:18:37;;;;;;;9.60;6.70;;;;;;;9.13;62.34;96118.53;4939195;28;20030;-80
2022/10/08 04:21:04;;;;;;;10.27;6.90;;;;;;;9.11;62.89;96115.16;4974194;28;20504;-80
2022/10/08 04:23:31;;;;;;;11.13;6.88;;;;;;;9.12;62.91;96116.84;4969987;28;20513;-80
2022/10/08 04:25:56;;;;;;;16.50;8.02;;;;;;;9.09;62.76;96109.13;4954083;28;20253;-81
2022/10/08 04:28:22;;;;;;;12.63;7.18;;;;;;;9.08;62.76;96105.59;4970061;28;20034;-80
2022/10/08 04:31:00;;;;;;;13.07;6.85;;;;;;;9.05;62.91;96110.41;4969595;28;20029;-81
2022/10/08 04:33:26;;;;;;;15.45;7.07;;;;;;;9.03;62.88;96107.88;4970578;28;20500;-80
2022/10/08 04:35:52;;;;;;;12.98;7.03;;;;;;;9.00;62.85;96109.03;4953590;28;20026;-82
2022/10/08 04:38:17;;;;;;;13.38;7.30;;;;;;;9.03;63.09;96103.38;4954268;28;20015;-80
2022/10/08 04:40:43;;;;;;;14.32;8.15;;;;;;;9.06;63.43;96104.06;4987021;28;20039;-80
2022/10/08 04:43:08;;;;;;;15.57;8.40;;;;;;;9.08;62.74;96099.38;4987040;28;20019;-80
2022/10/08 04:45:34;;;;;;;15.98;7.78;;;;;;;9.07;62.81;96103.91;4969052;28;20116;-80
2022/10/08 04:47:59;;;;;;;15.20;7.65;;;;;;;9.11;63.41;96107.13;4953062;28;20054;-81
2022/10/08 04:50:25;;;;;;;11.25;6.95;;;;;;;9.14;63.55;96101.50;4987321;28;20026;-81
2022/10/08 04:52:50;;;;;;;11.88;6.60;;;;;;;9.15;63.56;96100.47;4986526;28;20026;-81
2022/10/08 04:55:15;;;;;;;14.18;8.48;;;;;;;9.14;63.57;96104.16;4953848;28;20033;-83
2022/10/08 04:57:41;;;;;;;10.70;6.97;;;;;;;9.16;63.64;96107.50;4969054;28;20029;-80
2022/10/08 05:00:07;;;;;;;11.82;7.78;;;;;;;9.19;63.48;96107.19;4969745;28;20471;-81
2022/10/08 05:02:33;;;;;;;14.27;7.70;;;;;;;9.17;63.57;96108.38;4969356;28;20015;-80
2022/10/08 05:04:58;;;;;;;16.30;8.32;;;;;;;9.18;63.38;96108.22;4953451;28;20026;-81
2022/10/08 05:07:24;;;;;;;15.52;8.77;;;;;;;9.21;63.78;96109.72;4986818;28;20023;-81
2022/10/08 05:09:50;;;;;;;15.63;7.72;;;;;;;9.24;63.13;96117.44;4986321;28;20030;-81
2022/10/08 05:12:15;;;;;;;13.85;8.27;;;;;;;9.22;63.00;96116.78;4953686;28;20039;-81
2022/10/08 05:14:41;;;;;;;15.23;7.82;;;;;;;9.17;63.42;96113.72;4986429;28;20041;-82
2022/10/08 05:17:06;;;;;;;20.58;8.27;;;;;;;9.14;63.15;96112.19;4969894;28;20034;-82
2022/10/08 05:19:32;;;;;;;15.70;7.32;;;;;;;9.19;62.94;96120.59;4968950;28;20464;-82
2022/10/08 05:21:57;;;;;;;12.15;7.63;;;;;;;9.38;62.06;96122.28;4986829;28;20037;-83
2022/10/08 05:24:22;;;;;;;13.90;7.90;;;;;;;9.48;61.81;96126.75;4953754;28;20022;-80
2022/10/08 05:26:50;;;;;;;15.88;7.45;;;;;;;9.58;61.58;96121.28;4986978;28;20031;-81
2022/10/08 05:29:16;;;;;;;15.45;7.82;;;;;;;9.63;61.47;96122.53;4986947;28;20037;-81
2022/10/08 05:31:42;;;;;;;16.35;8.32;;;;;;;9.75;61.35;96128.47;4952793;28;20034;-82
2022/10/08 05:34:07;;;;;;;26.73;9.15;;;;;;;9.88;61.28;96129.94;4955676;28;20022;-82
2022/10/08 05:36:33;;;;;;;27.70;9.02;;;;;;;9.96;61.05;96127.28;4968820;28;20027;-80
2022/10/08 05:38:59;;;;;;;23.38;8.75;;;;;;;10.09;60.73;96131.41;4953736;28;20535;-81
2022/10/08 05:41:32;;;;;;;22.70;7.78;;;;;;;10.17;60.25;96131.47;4953301;28;20030;-80
2022/10/08 05:43:58;;;;;;;30.48;8.55;;;;;;;10.32;59.64;96126.38;4968998;28;20053;-82
2022/10/08 05:46:25;;;;;;;27.35;9.40;;;;;;;10.44;59.43;96120.72;4937353;28;20485;-81
2022/10/08 05:48:57;;;;;;;27.02;8.50;;;;;;;10.58;59.25;96132.72;4952596;28;20680;-81
2022/10/08 05:51:22;;;;;;;40.65;9.52;;;;;;;10.71;58.91;96127.78;4969383;28;20038;-81
2022/10/08 05:53:49;;;;;;;26.05;8.45;;;;;;;10.83;58.89;96122.13;4985946;28;20407;-81
2022/10/08 05:56:16;;;;;;;24.63;7.85;;;;;;;10.93;58.98;96125.50;4953763;28;20501;-81
2022/10/08 05:58:42;;;;;;;26.33;8.57;;;;;;;11.07;58.85;96125.91;4952917;28;20564;-81
2022/10/08 06:01:21;;;;;;;32.53;9.60;;;;;;;11.17;59.26;96118.53;4952700;28;20030;-82
2022/10/08 06:03:48;;;;;;;33.17;9.98;;;;;;;11.22;59.24;96121.56;4953840;28;20041;-82
2022/10/08 06:06:14;;;;;;;26.63;9.98;;;;;;;11.32;59.00;96118.75;4986267;28;20525;-81
2022/10/08 06:08:40;;;;;;;28.58;9.07;;;;;;;11.46;59.06;96124.50;4953220;28;20067;-82
2022/10/08 06:11:05;;;;;;;23.63;8.13;;;;;;;11.57;57.98;96123.31;4968785;28;20026;-81
2022/10/08 06:13:31;;;;;;;26.55;8.73;;;;;;;11.62;58.05;96119.13;4969483;28;20056;-81
2022/10/08 06:16:17;;;;;;;17.27;9.85;;;;;;;11.70;58.34;96123.66;4952556;28;20026;-82
2022/10/08 06:18:42;;;;;;;18.10;8.13;;;;;;;11.82;58.03;96117.94;4985606;28;20046;-81
2022/10/08 06:21:11;;;;;;;25.90;8.30;;;;;;;11.92;58.27;96118.63;4953224;28;20046;-81
2022/10/08 06:23:37;;;;;;;15.70;7.18;;;;;;;12.04;57.99;96123.66;4953140;28;20413;-82
2022/10/08 06:26:04;;;;;;;15.18;8.07;;;;;;;12.13;58.48;96129.91;4953419;28;20548;-81
2022/10/08 06:28:30;;;;;;;14.60;7.18;;;;;;;12.29;57.68;96123.66;4968791;28;20109;-82
2022/10/08 06:30:55;;;;;;;14.32;7.63;;;;;;;12.43;57.37;96124.81;4969308;28;20026;-82
2022/10/08 06:33:20;;;;;;;16.80;7.70;;;;;;;12.52;57.40;96123.78;4968743;28;20030;-81
2022/10/08 06:35:46;;;;;;;18.80;7.75;;;;;;;12.64;57.53;96121.56;4952437;28;20031;-81
2022/10/08 06:38:11;;;;;;;17.17;7.40;;;;;;;12.81;57.17;96126.88;4986389;28;20092;-81
2022/10/08 06:40:38;;;;;;;12.52;8.20;;;;;;;12.77;57.05;96120.19;4968085;28;20089;-81
2022/10/08 06:43:15;;;;;;;16.73;8.65;;;;;;;12.71;57.03;96124.41;4968965;28;20034;-81
2022/10/08 06:45:41;;;;;;;21.42;7.78;;;;;;;12.84;56.61;96124.69;4954175;28;20029;-82
2022/10/08 06:48:06;;;;;;;17.45;8.35;;;;;;;13.08;56.75;96128.28;4972384;28;20046;-80
2022/10/08 06:50:32;;;;;;;17.05;7.88;;;;;;;13.25;56.95;96112.03;4971654;28;20084;-81
2022/10/08 06:52:57;;;;;;;23.63;8.73;;;;;;;13.38;56.97;96111.44;4989634;28;20032;-81
2022/10/08 06:55:23;;;;;;;16.80;8.18;;;;;;;13.51;56.51;96110.91;4989691;28;20034;-81
2022/10/08 06:57:48;;;;;;;17.25;9.20;;;;;;;13.57;56.18;96114.75;4989280;28;20037;-82
2022/10/08 07:00:14;;;;;;;23.13;8.32;;;;;;;13.40;56.48;96113.97;4989398;28;20402;-80
2022/10/08 07:02:39;;;;;;;13.90;7.57;;;;;;;13.55;56.41;96106.00;4971687;28;20212;-81
2022/10/08 07:05:05;;;;;;;20.13;9.40;;;;;;;13.42;56.32;96102.00;4956198;28;20026;-80
2022/10/08 07:07:30;;;;;;;14.50;8.95;;;;;;;13.34;56.68;96112.84;4955481;28;20118;-83
2022/10/08 07:09:56;;;;;;;11.27;7.60;;;;;;;13.28;57.37;96116.25;4972157;28;20478;-81
2022/10/08 07:12:21;;;;;;;14.32;8.35;;;;;;;13.51;56.99;96115.47;4989061;28;20029;-85
2022/10/08 07:14:47;;;;;;;12.27;8.35;;;;;;;13.40;57.24;96109.41;4955769;28;20034;-81
2022/10/08 07:17:12;;;;;;;14.02;9.52;;;;;;;13.21;57.64;96110.72;4971556;28;20034;-82
2022/10/08 07:19:37;;;;;;;10.88;7.47;;;;;;;13.46;57.04;96114.09;4988760;28;20494;-82
2022/10/08 07:22:03;;;;;;;16.48;8.50;;;;;;;13.45;56.96;96108.88;4971567;28;20497;-82
2022/10/08 07:24:28;;;;;;;10.35;7.30;;;;;;;13.41;57.73;96110.28;4988634;28;20527;-82
2022/10/08 07:26:54;;;;;;;10.88;7.88;;;;;;;13.49;57.27;96107.53;4956000;28;20026;-81
2022/10/08 07:29:19;;;;;;;11.40;7.60;;;;;;;13.62;57.26;96100.72;4954545;28;20469;-82
2022/10/08 07:31:45;;;;;;;15.65;8.50;;;;;;;13.29;58.52;96109.81;4989169;28;20026;-81
2022/10/08 07:34:10;;;;;;;13.05;8.02;;;;;;;13.42;57.38;96110.09;4971145;28;20037;-83
2022/10/08 07:36:36;;;;;;;12.90;8.35;;;;;;;13.53;58.14;96103.47;4939084;28;20030;-82
2022/10/08 07:39:07;;;;;;;14.20;7.97;;;;;;;13.74;57.39;96103.81;4955556;28;20038;-81
2022/10/08 07:41:32;;;;;;;14.18;8.63;;;;;;;13.79;57.27;96101.44;4955000;28;20065;-82
2022/10/08 07:43:59;;;;;;;15.85;8.07;;;;;;;14.04;56.40;96098.53;4939457;28;20050;-81
2022/10/08 07:46:25;;;;;;;14.77;8.45;;;;;;;14.29;55.66;96088.34;4954414;28;20041;-81
2022/10/08 07:48:52;;;;;;;11.05;7.43;;;;;;;14.58;55.84;96093.94;4955361;28;20096;-81
2022/10/08 07:51:19;;;;;;;13.15;7.85;;;;;;;14.81;55.51;96093.88;4970882;28;20033;-82
2022/10/08 07:53:44;;;;;;;14.68;9.43;;;;;;;14.65;55.34;96094.03;4971067;28;20030;-82
2022/10/08 07:56:13;;;;;;;12.30;8.95;;;;;;;14.58;55.78;96089.38;4970583;28;20022;-83
2022/10/08 07:58:38;;;;;;;13.95;9.13;;;;;;;14.67;55.34;96086.59;4954797;28;20129;-82
2022/10/08 08:01:05;;;;;;;16.40;8.32;;;;;;;14.65;55.62;96089.50;4988401;28;20493;-82
2022/10/08 08:03:30;;;;;;;12.10;8.48;;;;;;;14.31;56.95;96082.75;4970878;28;20116;-83
2022/10/08 08:06:03;;;;;;;17.33;8.98;;;;;;;14.50;56.56;96075.13;4955568;28;20541;-81
2022/10/08 08:08:28;;;;;;;13.10;7.93;;;;;;;14.61;56.17;96077.38;4987978;28;20018;-83
2022/10/08 08:10:57;;;;;;;18.33;9.18;;;;;;;15.05;55.46;96073.00;4988457;28;20034;-82
2022/10/08 08:13:23;;;;;;;14.70;8.30;;;;;;;15.25;54.95;96074.25;4954639;28;20023;-82
2022/10/08 08:16:07;;;;;;;24.23;8.73;;;;;;;15.57;54.16;96070.19;4988069;28;20033;-82
2022/10/08 08:18:34;;;;;;;12.77;8.30;;;;;;;15.75;54.24;96073.50;4955035;28;20382;-81
2022/10/08 08:21:04;;;;;;;12.50;8.30;;;;;;;15.84;52.80;96069.63;4954150;28;20042;-81
2022/10/08 08:23:34;;;;;;;11.75;8.07;;;;;;;15.73;53.54;96059.31;4970820;28;20029;-81
2022/10/08 08:26:04;;;;;;;12.95;8.52;;;;;;;15.82;53.66;96064.41;4954862;28;20657;-81
2022/10/08 08:28:29;;;;;;;13.38;8.85;;;;;;;15.93;52.80;96057.63;4938241;28;20395;-81
2022/10/08 08:31:12;;;;;;;16.55;9.13;;;;;;;15.91;53.62;96062.38;4954695;28;20019;-83
2022/10/08 08:33:37;;;;;;;13.87;8.43;;;;;;;15.55;54.20;96060.63;4970087;28;20018;-82
2022/10/08 08:36:03;;;;;;;12.80;8.50;;;;;;;15.77;54.03;96053.31;4988438;28;20285;-82
2022/10/08 08:38:29;;;;;;;17.48;8.35;;;;;;;16.00;54.17;96055.00;4953906;28;20110;-82
2022/10/08 08:40:56;;;;;;;12.52;8.43;;;;;;;16.22;53.19;96067.66;4970503;28;20102;-82
2022/10/08 08:43:22;;;;;;;11.25;8.25;;;;;;;16.31;52.62;96058.34;4969969;28;20034;-83
2022/10/08 08:45:47;;;;;;;10.57;8.88;;;;;;;16.63;51.93;96049.78;4969918;28;20032;-81
2022/10/08 08:48:17;;;;;;;12.70;8.68;;;;;;;16.70;51.12;96044.41;4970097;28;20031;-81
2022/10/08 08:50:43;;;;;;;14.15;8.23;;;;;;;16.60;52.09;96048.31;4986560;28;20093;-83
2022/10/08 08:53:08;;;;;;;10.23;7.85;;;;;;;16.06;53.28;96037.13;4938072;28;20038;-83
2022/10/08 08:55:37;;;;;;;14.38;7.88;;;;;;;16.37;52.63;96040.47;4953166;28;20433;-82
2022/10/08 08:58:14;;;;;;;14.57;7.93;;;;;;;16.17;53.10;96042.00;4987819;28;20034;-82
2022/10/08 09:00:41;;;;;;;12.52;8.82;;;;;;;16.36;52.58;96036.09;4970660;28;20062;-82
2022/10/08 09:03:12;;;;;;;12.55;7.75;;;;;;;16.66;52.64;96038.53;4953729;28;20038;-82
2022/10/08 09:05:41;;;;;;;12.02;7.47;;;;;;;16.81;52.67;96031.09;4969830;28;20049;-82
2022/10/08 09:08:17;;;;;;;14.10;8.38;;;;;;;17.09;52.62;96029.38;4952812;28;20027;-82
2022/10/08 09:11:02;;;;;;;14.98;8.27;;;;;;;16.78;52.09;96036.13;4970442;28;20084;-82
2022/10/08 09:13:28;;;;;;;12.07;7.68;;;;;;;16.79;51.87;96029.66;4954584;28;20509;-81
2022/10/08 09:15:54;;;;;;;15.93;7.80;;;;;;;17.10;51.52;96014.78;4986692;28;20470;-84
2022/10/08 09:18:19;;;;;;;12.43;7.07;;;;;;;17.24;51.64;96012.94;4969821;28;20556;-84
2022/10/08 09:20:45;;;;;;;10.55;7.72;;;;;;;17.41;50.87;96010.66;4952672;28;20030;-83
2022/10/08 09:23:28;;;;;;;12.43;7.38;;;;;;;17.67;50.88;96011.75;4970005;28;20035;-83
2022/10/08 09:26:15;;;;;;;10.65;6.80;;;;;;;17.74;49.37;96002.78;4986435;28;20137;-83
2022/10/08 09:28:40;;;;;;;10.80;7.22;;;;;;;17.92;49.27;96003.00;4986870;28;20500;-82
2022/10/08 09:31:31;;;;;;;8.88;6.07;;;;;;;18.03;48.48;95998.81;4986852;28;20030;-82
2022/10/08 09:34:16;;;;;;;12.70;6.85;;;;;;;18.27;46.76;95995.66;4970977;28;20434;-81
2022/10/08 09:37:03;;;;;;;9.38;5.97;;;;;;;18.05;47.08;95990.44;4954119;28;20035;-82
2022/10/08 09:39:33;;;;;;;12.25;7.05;;;;;;;17.81;47.18;95989.22;4969323;28;20034;-81
2022/10/08 09:42:18;;;;;;;12.88;7.40;;;;;;;17.84;46.75;95986.09;4969340;28;20026;-83
2022/10/08 09:44:48;;;;;;;9.75;6.40;;;;;;;18.19;46.15;95974.16;4969647;28;20125;-81
2022/10/08 09:47:14;;;;;;;10.68;5.35;;;;;;;18.36;44.80;95975.38;4969191;28;20030;-81
2022/10/08 09:49:40;;;;;;;9.82;4.50;;;;;;;18.33;45.83;95969.53;4986861;28;20057;-82
2022/10/08 09:52:22;;;;;;;11.52;4.10;;;;;;;18.23;45.25;95972.69;4952920;28;20022;-83
2022/10/08 09:54:50;;;;;;;8.00;4.28;;;;;;;18.27;45.90;95971.22;4969756;28;20405;-83
2022/10/08 09:57:16;;;;;;;8.27;4.90;;;;;;;18.39;44.55;95969.50;4969756;28;20061;-82
2022/10/08 09:59:51;;;;;;;8.38;4.50;;;;;;;18.49;43.58;95973.69;4968952;28;20061;-81
2022/10/08 10:02:26;;;;;;;5.55;4.28;;;;;;;18.51;42.97;95961.53;4969616;28;20031;-80
2022/10/08 10:04:52;;;;;;;7.30;4.00;;;;;;;18.47;44.00;95962.19;4968583;28;20031;-82
2022/10/08 10:07:17;;;;;;;9.45;4.43;;;;;;;18.54;43.04;95957.56;4953786;28;20027;-80
2022/10/08 10:09:44;;;;;;;6.18;3.60;;;;;;;18.53;42.07;95947.75;4952721;28;20121;-80
2022/10/08 10:12:16;;;;;;;11.60;4.43;;;;;;;18.50;42.72;95950.91;4952753;28;20555;-80
2022/10/08 10:14:47;;;;;;;6.78;4.45;;;;;;;18.41;43.20;95951.13;4969229;28;20493;-82
2022/10/08 10:17:31;;;;;;;8.23;4.43;;;;;;;18.62;43.81;95941.00;4953360;28;20045;-81
2022/10/08 10:20:00;;;;;;;5.65;4.45;;;;;;;18.55;44.06;95936.66;4988934;28;20035;-81
2022/10/08 10:22:48;;;;;;;6.35;4.30;;;;;;;18.51;44.55;95939.81;4956242;28;20030;-81
2022/10/08 10:25:36;;;;;;;7.03;4.07;;;;;;;18.56;43.07;95927.47;4975114;28;20034;-81
2022/10/08 10:28:05;;;;;;;6.30;4.10;;;;;;;18.67;42.84;95923.25;4972394;28;20043;-80
2022/10/08 10:30:51;;;;;;;7.75;4.78;;;;;;;18.64;42.56;95917.19;4956096;28;20075;-81
2022/10/08 10:33:21;;;;;;;11.95;4.25;;;;;;;18.63;43.55;95920.97;4990614;28;20050;-81
2022/10/08 10:35:53;;;;;;;6.07;4.00;;;;;;;18.56;44.42;95914.72;4956561;28;20026;-80
2022/10/08 10:38:29;;;;;;;8.63;4.10;;;;;;;18.64;44.02;95906.31;4956316;28;20185;-81
2022/10/08 10:41:12;;;;;;;7.07;4.18;;;;;;;18.68;43.47;95900.47;4956083;28;20428;-81
2022/10/08 10:43:53;;;;;;;7.13;3.95;;;;;;;18.75;43.72;95907.53;4971942;28;20030;-80
2022/10/08 10:46:31;;;;;;;7.65;4.07;;;;;;;18.90;43.72;95899.09;4940606;28;20034;-81
2022/10/08 10:48:56;;;;;;;7.32;4.05;;;;;;;18.93;43.36;95894.25;4989026;28;20039;-81
2022/10/08 10:51:25;;;;;;;7.65;3.60;;;;;;;18.98;43.22;95891.69;4955326;28;20389;-81
2022/10/08 10:54:03;;;;;;;8.65;3.83;;;;;;;18.96;43.14;95891.13;4989573;28;20464;-80
2022/10/08 10:56:32;;;;;;;6.65;4.13;;;;;;;19.01;44.89;95880.38;4988993;28;20030;-81
2022/10/08 10:59:16;;;;;;;5.72;3.80;;;;;;;19.08;44.17;95872.19;4956508;28;20501;-83
2022/10/08 11:02:15;;;;;;;5.25;3.60;;;;;;;19.26;45.20;95876.91;4989192;28;20176;-82
2022/10/08 11:04:46;;;;;;;5.30;3.85;;;;;;;19.37;44.50;95862.59;4971189;28;20030;-81
2022/10/08 11:07:36;;;;;;;5.97;3.95;;;;;;;19.55;42.95;95866.41;4989425;28;20030;-80
2022/10/08 11:10:04;;;;;;;8.00;4.35;;;;;;;19.62;41.95;95861.72;4971212;28;20081;-81
2022/10/08 11:12:48;;;;;;;5.20;3.97;;;;;;;19.54;42.67;95856.56;4989519;28;20045;-82
2022/10/08 11:15:31;;;;;;;4.20;3.50;;;;;;;19.71;41.53;95856.00;4956666;28;20031;-81
2022/10/08 11:18:15;;;;;;;6.57;4.18;;;;;;;19.68;42.04;95854.56;4955707;28;20045;-81
2022/10/08 11:21:13;;;;;;;6.55;4.03;;;;;;;19.67;40.91;95849.34;4989872;28;20041;-82
2022/10/08 11:24:05;;;;;;;4.88;3.90;;;;;;;19.62;40.60;95850.00;4974981;28;20041;-81
2022/10/08 11:26:51;;;;;;;5.28;3.65;;;;;;;19.80;41.82;95851.91;4975302;28;20473;-83
2022/10/08 11:29:47;;;;;;;5.25;3.40;;;;;;;19.83;39.35;95843.31;4971586;28;20030;-81
2022/10/08 11:32:14;;;;;;;6.05;3.45;;;;;;;19.72;39.56;95839.44;4987696;28;20032;-81
2022/10/08 11:34:44;;;;;;;4.43;3.45;;;;;;;19.89;39.67;95833.41;4938646;28;20030;-81
2022/10/08 11:37:28;;;;;;;6.82;3.53;;;;;;;20.05;40.63;95832.00;4955613;28;20023;-81
2022/10/08 11:40:15;;;;;;;6.88;3.33;;;;;;;20.09;40.66;95822.31;4988187;28;20075;-81
2022/10/08 11:43:22;;;;;;;7.40;4.32;;;;;;;20.15;39.52;95817.88;4988851;28;20467;-81
2022/10/08 11:45:48;;;;;;;5.63;3.55;;;;;;;20.33;39.76;95816.19;4958844;28;20048;-83